sensor_id;sensor_type;location;lat;lon;timestamp;P1;durP1;ratioP1;P2;durP2;ratioP2
12818;SDS011;6474;53.474;9.894;2024-01-16T00:01:48;2.53;;;1.90;;
12818;SDS011;6474;53.474;9.894;2024-01-16T00:04:17;0.70;;;0.70;;
12818;SDS011;6474;53.474;9.894;2024-01-16T00:06:45;1.07;;;1.07;;
12818;SDS011;6474;53.474;9.894;2024-01-16T00:09:17;0.90;;;0.90;;
12818;SDS011;6474;53.474;9.894;2024-01-16T00:11:45;0.60;;;0.60;;
12818;SDS011;6474;53.474;9.894;2024-01-16T00:14:13;0.97;;;0.97;;
12818;SDS011;6474;53.474;9.894;2024-01-16T00:16:42;1.00;;;1.00;;
12818;SDS011;6474;53.474;9.894;2024-01-16T00:19:12;0.50;;;0.50;;
12818;SDS011;6474;53.474;9.894;2024-01-16T00:21:42;0.60;;;0.60;;
12818;SDS011;6474;53.474;9.894;2024-01-16T00:24:11;1.00;;;1.00;;
12818;SDS011;6474;53.474;9.894;2024-01-16T00:26:39;1.37;;;1.37;;
12818;SDS011;6474;53.474;9.894;2024-01-16T00:29:07;1.00;;;1.00;;
12818;SDS011;6474;53.474;9.894;2024-01-16T00:31:38;9.57;;;1.80;;
12818;SDS011;6474;53.474;9.894;2024-01-16T00:34:06;1.03;;;1.03;;
12818;SDS011;6474;53.474;9.894;2024-01-16T00:36:34;1.60;;;1.00;;
12818;SDS011;6474;53.474;9.894;2024-01-16T00:39:04;1.17;;;1.17;;
12818;SDS011;6474;53.474;9.894;2024-01-16T00:41:33;5.90;;;1.03;;
12818;SDS011;6474;53.474;9.894;2024-01-16T00:44:01;1.43;;;1.33;;
12818;SDS011;6474;53.474;9.894;2024-01-16T00:46:29;1.17;;;1.17;;
12818;SDS011;6474;53.474;9.894;2024-01-16T00:48:57;3.80;;;1.53;;
12818;SDS011;6474;53.474;9.894;2024-01-16T00:51:26;1.30;;;1.30;;
12818;SDS011;6474;53.474;9.894;2024-01-16T00:53:54;1.10;;;1.10;;
12818;SDS011;6474;53.474;9.894;2024-01-16T00:56:23;1.20;;;1.20;;
12818;SDS011;6474;53.474;9.894;2024-01-16T00:58:53;1.83;;;1.73;;
12818;SDS011;6474;53.474;9.894;2024-01-16T01:01:21;1.00;;;1.00;;
12818;SDS011;6474;53.474;9.894;2024-01-16T01:03:51;1.83;;;1.63;;
12818;SDS011;6474;53.474;9.894;2024-01-16T01:06:19;1.70;;;1.60;;
12818;SDS011;6474;53.474;9.894;2024-01-16T01:08:48;1.83;;;1.70;;
12818;SDS011;6474;53.474;9.894;2024-01-16T01:11:15;5.30;;;1.83;;
12818;SDS011;6474;53.474;9.894;2024-01-16T01:13:45;1.17;;;1.17;;
12818;SDS011;6474;53.474;9.894;2024-01-16T01:16:13;3.50;;;0.90;;
12818;SDS011;6474;53.474;9.894;2024-01-16T01:18:41;1.00;;;1.00;;
12818;SDS011;6474;53.474;9.894;2024-01-16T01:21:09;1.30;;;1.30;;
12818;SDS011;6474;53.474;9.894;2024-01-16T01:23:37;1.10;;;1.10;;
12818;SDS011;6474;53.474;9.894;2024-01-16T01:26:05;4.30;;;1.40;;
12818;SDS011;6474;53.474;9.894;2024-01-16T01:28:33;2.97;;;1.37;;
12818;SDS011;6474;53.474;9.894;2024-01-16T01:31:02;1.17;;;1.17;;
12818;SDS011;6474;53.474;9.894;2024-01-16T01:33:30;8.67;;;1.43;;
12818;SDS011;6474;53.474;9.894;2024-01-16T01:35:58;1.47;;;1.37;;
12818;SDS011;6474;53.474;9.894;2024-01-16T01:38:26;4.03;;;1.63;;
12818;SDS011;6474;53.474;9.894;2024-01-16T01:40:54;1.77;;;1.30;;
12818;SDS011;6474;53.474;9.894;2024-01-16T01:43:23;1.53;;;1.53;;
12818;SDS011;6474;53.474;9.894;2024-01-16T01:46:08;1.77;;;1.67;;
12818;SDS011;6474;53.474;9.894;2024-01-16T01:48:37;2.07;;;1.97;;
12818;SDS011;6474;53.474;9.894;2024-01-16T01:51:06;1.53;;;1.47;;
12818;SDS011;6474;53.474;9.894;2024-01-16T01:53:34;1.40;;;1.37;;
12818;SDS011;6474;53.474;9.894;2024-01-16T01:56:04;0.97;;;0.97;;
12818;SDS011;6474;53.474;9.894;2024-01-16T01:58:35;1.50;;;1.40;;
12818;SDS011;6474;53.474;9.894;2024-01-16T02:01:06;1.90;;;1.80;;
12818;SDS011;6474;53.474;9.894;2024-01-16T02:03:35;1.33;;;1.33;;
12818;SDS011;6474;53.474;9.894;2024-01-16T02:06:08;1.37;;;1.37;;
12818;SDS011;6474;53.474;9.894;2024-01-16T02:08:37;1.07;;;1.07;;
12818;SDS011;6474;53.474;9.894;2024-01-16T02:11:06;1.03;;;1.03;;
12818;SDS011;6474;53.474;9.894;2024-01-16T02:13:34;1.40;;;1.40;;
12818;SDS011;6474;53.474;9.894;2024-01-16T02:16:02;0.90;;;0.90;;
12818;SDS011;6474;53.474;9.894;2024-01-16T02:18:33;1.77;;;1.53;;
12818;SDS011;6474;53.474;9.894;2024-01-16T02:21:02;1.57;;;1.50;;
12818;SDS011;6474;53.474;9.894;2024-01-16T02:23:34;2.00;;;1.30;;
12818;SDS011;6474;53.474;9.894;2024-01-16T02:26:02;0.90;;;0.90;;
12818;SDS011;6474;53.474;9.894;2024-01-16T02:28:31;1.83;;;1.73;;
12818;SDS011;6474;53.474;9.894;2024-01-16T02:30:59;1.50;;;1.47;;
12818;SDS011;6474;53.474;9.894;2024-01-16T02:33:27;1.10;;;1.10;;
12818;SDS011;6474;53.474;9.894;2024-01-16T02:35:55;2.13;;;2.03;;
12818;SDS011;6474;53.474;9.894;2024-01-16T02:38:23;1.67;;;1.67;;
12818;SDS011;6474;53.474;9.894;2024-01-16T02:40:53;1.50;;;1.50;;
12818;SDS011;6474;53.474;9.894;2024-01-16T02:43:21;1.90;;;1.27;;
12818;SDS011;6474;53.474;9.894;2024-01-16T02:45:49;1.17;;;1.17;;
12818;SDS011;6474;53.474;9.894;2024-01-16T02:48:18;1.57;;;1.47;;
12818;SDS011;6474;53.474;9.894;2024-01-16T02:50:46;2.03;;;1.93;;
12818;SDS011;6474;53.474;9.894;2024-01-16T02:53:15;1.93;;;1.73;;
12818;SDS011;6474;53.474;9.894;2024-01-16T02:55:43;2.00;;;1.73;;
12818;SDS011;6474;53.474;9.894;2024-01-16T02:58:12;1.03;;;1.03;;
12818;SDS011;6474;53.474;9.894;2024-01-16T03:00:40;1.70;;;1.60;;
12818;SDS011;6474;53.474;9.894;2024-01-16T03:03:08;1.37;;;1.37;;
12818;SDS011;6474;53.474;9.894;2024-01-16T03:05:36;3.90;;;1.57;;
12818;SDS011;6474;53.474;9.894;2024-01-16T03:08:06;1.83;;;1.73;;
12818;SDS011;6474;53.474;9.894;2024-01-16T03:10:35;2.03;;;1.43;;
12818;SDS011;6474;53.474;9.894;2024-01-16T03:13:03;1.63;;;1.53;;
12818;SDS011;6474;53.474;9.894;2024-01-16T03:15:32;1.13;;;1.13;;
12818;SDS011;6474;53.474;9.894;2024-01-16T03:18:01;1.77;;;1.77;;
12818;SDS011;6474;53.474;9.894;2024-01-16T03:20:29;1.93;;;1.83;;
12818;SDS011;6474;53.474;9.894;2024-01-16T03:22:57;1.20;;;1.20;;
12818;SDS011;6474;53.474;9.894;2024-01-16T03:25:25;1.50;;;1.40;;
12818;SDS011;6474;53.474;9.894;2024-01-16T03:27:53;1.40;;;1.40;;
12818;SDS011;6474;53.474;9.894;2024-01-16T03:30:21;1.77;;;1.67;;
12818;SDS011;6474;53.474;9.894;2024-01-16T03:32:50;1.13;;;1.13;;
12818;SDS011;6474;53.474;9.894;2024-01-16T03:35:18;0.97;;;0.97;;
12818;SDS011;6474;53.474;9.894;2024-01-16T03:37:46;1.87;;;1.77;;
12818;SDS011;6474;53.474;9.894;2024-01-16T03:40:14;1.37;;;1.37;;
12818;SDS011;6474;53.474;9.894;2024-01-16T03:42:42;2.37;;;2.07;;
12818;SDS011;6474;53.474;9.894;2024-01-16T03:45:10;2.37;;;2.27;;
12818;SDS011;6474;53.474;9.894;2024-01-16T03:47:42;2.27;;;1.27;;
12818;SDS011;6474;53.474;9.894;2024-01-16T03:50:13;1.17;;;1.17;;
12818;SDS011;6474;53.474;9.894;2024-01-16T03:52:41;4.07;;;2.33;;
12818;SDS011;6474;53.474;9.894;2024-01-16T03:55:09;1.40;;;1.30;;
12818;SDS011;6474;53.474;9.894;2024-01-16T03:57:37;0.97;;;0.97;;
12818;SDS011;6474;53.474;9.894;2024-01-16T04:00:05;1.10;;;1.10;;
12818;SDS011;6474;53.474;9.894;2024-01-16T04:02:37;0.93;;;0.93;;
12818;SDS011;6474;53.474;9.894;2024-01-16T04:05:06;1.63;;;1.17;;
12818;SDS011;6474;53.474;9.894;2024-01-16T04:07:35;1.03;;;1.03;;
12818;SDS011;6474;53.474;9.894;2024-01-16T04:10:04;0.47;;;0.47;;
12818;SDS011;6474;53.474;9.894;2024-01-16T04:12:33;7.13;;;1.37;;
12818;SDS011;6474;53.474;9.894;2024-01-16T04:15:01;0.80;;;0.80;;
12818;SDS011;6474;53.474;9.894;2024-01-16T04:17:29;1.00;;;1.00;;
12818;SDS011;6474;53.474;9.894;2024-01-16T04:19:57;0.60;;;0.60;;
12818;SDS011;6474;53.474;9.894;2024-01-16T04:22:24;1.17;;;1.17;;
12818;SDS011;6474;53.474;9.894;2024-01-16T04:24:54;0.80;;;0.80;;
12818;SDS011;6474;53.474;9.894;2024-01-16T04:27:21;0.73;;;0.73;;
12818;SDS011;6474;53.474;9.894;2024-01-16T04:29:49;0.90;;;0.90;;
12818;SDS011;6474;53.474;9.894;2024-01-16T04:32:17;1.43;;;1.43;;
12818;SDS011;6474;53.474;9.894;2024-01-16T04:34:45;2.63;;;1.07;;
12818;SDS011;6474;53.474;9.894;2024-01-16T04:37:13;0.87;;;0.73;;
12818;SDS011;6474;53.474;9.894;2024-01-16T04:39:40;0.90;;;0.90;;
12818;SDS011;6474;53.474;9.894;2024-01-16T04:42:10;0.70;;;0.70;;
12818;SDS011;6474;53.474;9.894;2024-01-16T04:44:37;1.10;;;1.10;;
12818;SDS011;6474;53.474;9.894;2024-01-16T04:47:05;0.63;;;0.63;;
12818;SDS011;6474;53.474;9.894;2024-01-16T04:49:33;1.07;;;1.07;;
12818;SDS011;6474;53.474;9.894;2024-01-16T04:52:02;0.53;;;0.53;;
12818;SDS011;6474;53.474;9.894;2024-01-16T04:54:30;0.70;;;0.70;;
12818;SDS011;6474;53.474;9.894;2024-01-16T04:56:58;0.50;;;0.50;;
12818;SDS011;6474;53.474;9.894;2024-01-16T04:59:27;0.80;;;0.80;;
12818;SDS011;6474;53.474;9.894;2024-01-16T05:01:57;0.30;;;0.30;;
12818;SDS011;6474;53.474;9.894;2024-01-16T05:04:24;0.30;;;0.30;;
12818;SDS011;6474;53.474;9.894;2024-01-16T05:06:52;0.33;;;0.23;;
12818;SDS011;6474;53.474;9.894;2024-01-16T05:09:21;0.30;;;0.30;;
12818;SDS011;6474;53.474;9.894;2024-01-16T05:11:49;0.60;;;0.60;;
12818;SDS011;6474;53.474;9.894;2024-01-16T05:14:17;0.47;;;0.47;;
12818;SDS011;6474;53.474;9.894;2024-01-16T05:16:46;0.50;;;0.33;;
12818;SDS011;6474;53.474;9.894;2024-01-16T05:19:14;0.30;;;0.30;;
12818;SDS011;6474;53.474;9.894;2024-01-16T05:21:42;0.37;;;0.37;;
12818;SDS011;6474;53.474;9.894;2024-01-16T05:24:10;0.33;;;0.33;;
12818;SDS011;6474;53.474;9.894;2024-01-16T05:26:38;0.30;;;0.30;;
12818;SDS011;6474;53.474;9.894;2024-01-16T05:29:05;0.47;;;0.47;;
12818;SDS011;6474;53.474;9.894;2024-01-16T05:31:38;0.37;;;0.37;;
12818;SDS011;6474;53.474;9.894;2024-01-16T05:34:09;0.10;;;0.10;;
12818;SDS011;6474;53.474;9.894;2024-01-16T05:36:37;0.40;;;0.23;;
12818;SDS011;6474;53.474;9.894;2024-01-16T05:39:05;0.30;;;0.30;;
12818;SDS011;6474;53.474;9.894;2024-01-16T05:41:34;0.30;;;0.30;;
12818;SDS011;6474;53.474;9.894;2024-01-16T05:44:02;0.37;;;0.37;;
12818;SDS011;6474;53.474;9.894;2024-01-16T05:46:30;0.67;;;0.23;;
12818;SDS011;6474;53.474;9.894;2024-01-16T05:48:58;0.30;;;0.30;;
12818;SDS011;6474;53.474;9.894;2024-01-16T05:51:28;0.30;;;0.30;;
12818;SDS011;6474;53.474;9.894;2024-01-16T05:53:56;0.50;;;0.50;;
12818;SDS011;6474;53.474;9.894;2024-01-16T05:56:24;0.30;;;0.30;;
12818;SDS011;6474;53.474;9.894;2024-01-16T05:58:52;0.10;;;0.10;;
12818;SDS011;6474;53.474;9.894;2024-01-16T06:01:20;0.30;;;0.30;;
12818;SDS011;6474;53.474;9.894;2024-01-16T06:03:47;0.30;;;0.30;;
12818;SDS011;6474;53.474;9.894;2024-01-16T06:06:16;0.43;;;0.43;;
12818;SDS011;6474;53.474;9.894;2024-01-16T06:08:45;0.20;;;0.20;;
12818;SDS011;6474;53.474;9.894;2024-01-16T06:11:13;0.47;;;0.47;;
12818;SDS011;6474;53.474;9.894;2024-01-16T06:13:41;0.20;;;0.20;;
12818;SDS011;6474;53.474;9.894;2024-01-16T06:16:08;0.23;;;0.23;;
12818;SDS011;6474;53.474;9.894;2024-01-16T06:18:37;0.73;;;0.60;;
12818;SDS011;6474;53.474;9.894;2024-01-16T06:21:05;0.20;;;0.20;;
12818;SDS011;6474;53.474;9.894;2024-01-16T06:23:32;1.83;;;0.90;;
12818;SDS011;6474;53.474;9.894;2024-01-16T06:26:02;0.50;;;0.50;;
12818;SDS011;6474;53.474;9.894;2024-01-16T06:28:29;0.60;;;0.60;;
12818;SDS011;6474;53.474;9.894;2024-01-16T06:30:58;1.23;;;1.13;;
12818;SDS011;6474;53.474;9.894;2024-01-16T06:33:26;0.60;;;0.60;;
12818;SDS011;6474;53.474;9.894;2024-01-16T06:35:54;2.83;;;0.57;;
12818;SDS011;6474;53.474;9.894;2024-01-16T06:38:22;1.80;;;0.60;;
12818;SDS011;6474;53.474;9.894;2024-01-16T06:40:50;0.40;;;0.40;;
12818;SDS011;6474;53.474;9.894;2024-01-16T06:43:19;0.60;;;0.60;;
12818;SDS011;6474;53.474;9.894;2024-01-16T06:45:47;0.53;;;0.33;;
12818;SDS011;6474;53.474;9.894;2024-01-16T06:48:15;0.20;;;0.20;;
12818;SDS011;6474;53.474;9.894;2024-01-16T06:50:43;0.60;;;0.60;;
12818;SDS011;6474;53.474;9.894;2024-01-16T06:53:11;0.70;;;0.63;;
12818;SDS011;6474;53.474;9.894;2024-01-16T06:55:42;0.33;;;0.33;;
12818;SDS011;6474;53.474;9.894;2024-01-16T06:58:10;0.40;;;0.40;;
12818;SDS011;6474;53.474;9.894;2024-01-16T07:00:40;2.57;;;1.03;;
12818;SDS011;6474;53.474;9.894;2024-01-16T07:03:09;1.03;;;0.80;;
12818;SDS011;6474;53.474;9.894;2024-01-16T07:05:37;1.00;;;1.00;;
12818;SDS011;6474;53.474;9.894;2024-01-16T07:08:07;1.13;;;0.60;;
12818;SDS011;6474;53.474;9.894;2024-01-16T07:10:35;2.30;;;0.60;;
12818;SDS011;6474;53.474;9.894;2024-01-16T07:13:03;0.30;;;0.30;;
12818;SDS011;6474;53.474;9.894;2024-01-16T07:15:31;0.83;;;0.83;;
12818;SDS011;6474;53.474;9.894;2024-01-16T07:18:00;0.90;;;0.90;;
12818;SDS011;6474;53.474;9.894;2024-01-16T07:20:28;1.60;;;1.50;;
12818;SDS011;6474;53.474;9.894;2024-01-16T07:22:56;6.60;;;1.83;;
12818;SDS011;6474;53.474;9.894;2024-01-16T07:25:24;1.00;;;1.00;;
12818;SDS011;6474;53.474;9.894;2024-01-16T07:27:52;1.57;;;1.57;;
12818;SDS011;6474;53.474;9.894;2024-01-16T07:30:19;6.53;;;1.17;;
12818;SDS011;6474;53.474;9.894;2024-01-16T07:32:47;1.10;;;1.10;;
12818;SDS011;6474;53.474;9.894;2024-01-16T07:35:18;1.60;;;1.50;;
12818;SDS011;6474;53.474;9.894;2024-01-16T07:37:46;5.60;;;1.73;;
12818;SDS011;6474;53.474;9.894;2024-01-16T07:40:14;1.90;;;1.83;;
12818;SDS011;6474;53.474;9.894;2024-01-16T07:42:43;1.80;;;1.27;;
12818;SDS011;6474;53.474;9.894;2024-01-16T07:45:11;1.27;;;1.27;;
12818;SDS011;6474;53.474;9.894;2024-01-16T07:47:39;1.23;;;1.23;;
12818;SDS011;6474;53.474;9.894;2024-01-16T07:50:10;0.97;;;0.97;;
12818;SDS011;6474;53.474;9.894;2024-01-16T07:52:39;0.83;;;0.83;;
12818;SDS011;6474;53.474;9.894;2024-01-16T07:55:07;4.27;;;1.80;;
12818;SDS011;6474;53.474;9.894;2024-01-16T07:57:35;2.17;;;1.33;;
12818;SDS011;6474;53.474;9.894;2024-01-16T08:00:04;1.33;;;1.33;;
12818;SDS011;6474;53.474;9.894;2024-01-16T08:02:38;3.40;;;1.50;;
12818;SDS011;6474;53.474;9.894;2024-01-16T08:05:06;1.80;;;1.70;;
12818;SDS011;6474;53.474;9.894;2024-01-16T08:07:34;1.30;;;1.30;;
12818;SDS011;6474;53.474;9.894;2024-01-16T08:10:04;1.40;;;1.30;;
12818;SDS011;6474;53.474;9.894;2024-01-16T08:12:33;6.90;;;1.20;;
12818;SDS011;6474;53.474;9.894;2024-01-16T08:15:00;13.70;;;1.70;;
12818;SDS011;6474;53.474;9.894;2024-01-16T08:17:28;1.43;;;1.43;;
12818;SDS011;6474;53.474;9.894;2024-01-16T08:19:56;1.13;;;1.13;;
12818;SDS011;6474;53.474;9.894;2024-01-16T08:22:24;1.73;;;1.63;;
12818;SDS011;6474;53.474;9.894;2024-01-16T08:24:52;1.50;;;1.40;;
12818;SDS011;6474;53.474;9.894;2024-01-16T08:27:21;1.43;;;1.43;;
12818;SDS011;6474;53.474;9.894;2024-01-16T08:29:49;6.47;;;1.80;;
12818;SDS011;6474;53.474;9.894;2024-01-16T08:32:17;1.50;;;1.50;;
12818;SDS011;6474;53.474;9.894;2024-01-16T08:34:44;1.20;;;1.20;;
12818;SDS011;6474;53.474;9.894;2024-01-16T08:37:13;1.93;;;1.73;;
12818;SDS011;6474;53.474;9.894;2024-01-16T08:39:41;1.13;;;1.13;;
12818;SDS011;6474;53.474;9.894;2024-01-16T08:42:09;1.97;;;1.87;;
12818;SDS011;6474;53.474;9.894;2024-01-16T08:44:39;2.03;;;1.57;;
12818;SDS011;6474;53.474;9.894;2024-01-16T08:47:07;0.60;;;0.60;;
12818;SDS011;6474;53.474;9.894;2024-01-16T08:49:35;2.60;;;1.83;;
12818;SDS011;6474;53.474;9.894;2024-01-16T08:52:04;1.43;;;1.33;;
12818;SDS011;6474;53.474;9.894;2024-01-16T08:54:32;1.63;;;1.53;;
12818;SDS011;6474;53.474;9.894;2024-01-16T08:57:00;1.43;;;1.43;;
12818;SDS011;6474;53.474;9.894;2024-01-16T08:59:28;3.37;;;1.63;;
12818;SDS011;6474;53.474;9.894;2024-01-16T09:01:57;2.27;;;1.87;;
12818;SDS011;6474;53.474;9.894;2024-01-16T09:04:25;1.67;;;1.67;;
12818;SDS011;6474;53.474;9.894;2024-01-16T09:06:53;1.00;;;1.00;;
12818;SDS011;6474;53.474;9.894;2024-01-16T09:09:21;1.53;;;1.47;;
12818;SDS011;6474;53.474;9.894;2024-01-16T09:11:49;3.67;;;1.70;;
12818;SDS011;6474;53.474;9.894;2024-01-16T09:14:17;1.73;;;1.63;;
12818;SDS011;6474;53.474;9.894;2024-01-16T09:16:46;5.50;;;1.50;;
12818;SDS011;6474;53.474;9.894;2024-01-16T09:19:15;1.40;;;1.37;;
12818;SDS011;6474;53.474;9.894;2024-01-16T09:21:44;3.50;;;1.40;;
12818;SDS011;6474;53.474;9.894;2024-01-16T09:24:11;1.33;;;1.33;;
12818;SDS011;6474;53.474;9.894;2024-01-16T09:26:39;1.10;;;1.10;;
12818;SDS011;6474;53.474;9.894;2024-01-16T09:29:07;2.50;;;2.30;;
12818;SDS011;6474;53.474;9.894;2024-01-16T09:31:36;0.90;;;0.90;;
12818;SDS011;6474;53.474;9.894;2024-01-16T09:34:04;1.03;;;1.03;;
12818;SDS011;6474;53.474;9.894;2024-01-16T09:36:36;1.40;;;1.30;;
12818;SDS011;6474;53.474;9.894;2024-01-16T09:39:04;0.87;;;0.87;;
12818;SDS011;6474;53.474;9.894;2024-01-16T09:41:35;0.70;;;0.70;;
12818;SDS011;6474;53.474;9.894;2024-01-16T09:44:03;0.90;;;0.90;;
12818;SDS011;6474;53.474;9.894;2024-01-16T09:46:31;2.83;;;1.13;;
12818;SDS011;6474;53.474;9.894;2024-01-16T09:49:01;1.50;;;0.70;;
12818;SDS011;6474;53.474;9.894;2024-01-16T09:51:30;6.67;;;0.73;;
12818;SDS011;6474;53.474;9.894;2024-01-16T09:53:59;0.50;;;0.50;;
12818;SDS011;6474;53.474;9.894;2024-01-16T09:56:28;5.20;;;1.67;;
12818;SDS011;6474;53.474;9.894;2024-01-16T09:58:58;0.87;;;0.87;;
12818;SDS011;6474;53.474;9.894;2024-01-16T10:01:32;0.70;;;0.57;;
12818;SDS011;6474;53.474;9.894;2024-01-16T10:04:00;0.40;;;0.40;;
12818;SDS011;6474;53.474;9.894;2024-01-16T10:06:28;0.40;;;0.40;;
12818;SDS011;6474;53.474;9.894;2024-01-16T10:09:00;0.73;;;0.57;;
12818;SDS011;6474;53.474;9.894;2024-01-16T10:11:28;1.50;;;0.93;;
12818;SDS011;6474;53.474;9.894;2024-01-16T10:13:56;0.30;;;0.30;;
12818;SDS011;6474;53.474;9.894;2024-01-16T10:16:35;0.63;;;0.63;;
12818;SDS011;6474;53.474;9.894;2024-01-16T10:19:27;0.83;;;0.83;;
12818;SDS011;6474;53.474;9.894;2024-01-16T10:22:11;1.03;;;0.80;;
12818;SDS011;6474;53.474;9.894;2024-01-16T10:24:40;0.53;;;0.53;;
12818;SDS011;6474;53.474;9.894;2024-01-16T10:27:08;4.80;;;1.53;;
12818;SDS011;6474;53.474;9.894;2024-01-16T10:29:35;0.43;;;0.43;;
12818;SDS011;6474;53.474;9.894;2024-01-16T10:32:19;0.77;;;0.30;;
12818;SDS011;6474;53.474;9.894;2024-01-16T10:35:05;1.70;;;0.43;;
12818;SDS011;6474;53.474;9.894;2024-01-16T10:37:40;0.60;;;0.60;;
12818;SDS011;6474;53.474;9.894;2024-01-16T10:40:10;2.90;;;0.60;;
12818;SDS011;6474;53.474;9.894;2024-01-16T10:42:43;0.67;;;0.67;;
12818;SDS011;6474;53.474;9.894;2024-01-16T10:45:16;0.60;;;0.60;;
12818;SDS011;6474;53.474;9.894;2024-01-16T10:47:47;0.40;;;0.40;;
12818;SDS011;6474;53.474;9.894;2024-01-16T10:50:15;1.60;;;0.80;;
12818;SDS011;6474;53.474;9.894;2024-01-16T10:52:46;0.70;;;0.70;;
12818;SDS011;6474;53.474;9.894;2024-01-16T10:55:19;2.73;;;1.03;;
12818;SDS011;6474;53.474;9.894;2024-01-16T10:57:49;2.47;;;0.57;;
12818;SDS011;6474;53.474;9.894;2024-01-16T11:00:18;0.50;;;0.50;;
12818;SDS011;6474;53.474;9.894;2024-01-16T11:02:54;0.50;;;0.50;;
12818;SDS011;6474;53.474;9.894;2024-01-16T11:05:28;0.60;;;0.60;;
12818;SDS011;6474;53.474;9.894;2024-01-16T11:07:59;17.57;;;0.73;;
12818;SDS011;6474;53.474;9.894;2024-01-16T11:10:30;5.43;;;0.50;;
12818;SDS011;6474;53.474;9.894;2024-01-16T11:13:00;0.57;;;0.43;;
12818;SDS011;6474;53.474;9.894;2024-01-16T11:15:28;0.77;;;0.77;;
12818;SDS011;6474;53.474;9.894;2024-01-16T11:17:58;0.30;;;0.30;;
12818;SDS011;6474;53.474;9.894;2024-01-16T11:20:27;0.40;;;0.40;;
12818;SDS011;6474;53.474;9.894;2024-01-16T11:23:17;1.00;;;0.90;;
12818;SDS011;6474;53.474;9.894;2024-01-16T11:25:44;0.30;;;0.30;;
12818;SDS011;6474;53.474;9.894;2024-01-16T11:28:13;2.50;;;1.53;;
12818;SDS011;6474;53.474;9.894;2024-01-16T11:30:42;0.53;;;0.53;;
12818;SDS011;6474;53.474;9.894;2024-01-16T11:39:22;0.30;;;0.30;;
12818;SDS011;6474;53.474;9.894;2024-01-16T11:41:52;0.57;;;0.57;;
12818;SDS011;6474;53.474;9.894;2024-01-16T11:44:38;0.50;;;0.50;;
12818;SDS011;6474;53.474;9.894;2024-01-16T11:47:15;0.50;;;0.50;;
12818;SDS011;6474;53.474;9.894;2024-01-16T11:49:46;1.07;;;1.07;;
12818;SDS011;6474;53.474;9.894;2024-01-16T11:52:14;0.33;;;0.33;;
12818;SDS011;6474;53.474;9.894;2024-01-16T11:54:42;1.17;;;0.70;;
12818;SDS011;6474;53.474;9.894;2024-01-16T12:00:15;0.50;;;0.50;;
12818;SDS011;6474;53.474;9.894;2024-01-16T12:02:53;0.97;;;0.97;;
12818;SDS011;6474;53.474;9.894;2024-01-16T12:05:25;1.17;;;1.17;;
12818;SDS011;6474;53.474;9.894;2024-01-16T12:07:53;0.57;;;0.57;;
12818;SDS011;6474;53.474;9.894;2024-01-16T12:10:21;0.50;;;0.50;;
12818;SDS011;6474;53.474;9.894;2024-01-16T12:12:51;0.60;;;0.60;;
12818;SDS011;6474;53.474;9.894;2024-01-16T12:15:30;0.70;;;0.70;;
12818;SDS011;6474;53.474;9.894;2024-01-16T12:17:58;1.37;;;1.37;;
12818;SDS011;6474;53.474;9.894;2024-01-16T12:20:30;0.93;;;0.93;;
12818;SDS011;6474;53.474;9.894;2024-01-16T12:22:59;0.40;;;0.40;;
12818;SDS011;6474;53.474;9.894;2024-01-16T12:25:29;0.70;;;0.70;;
12818;SDS011;6474;53.474;9.894;2024-01-16T12:28:17;0.90;;;0.90;;
12818;SDS011;6474;53.474;9.894;2024-01-16T12:30:58;0.80;;;0.80;;
12818;SDS011;6474;53.474;9.894;2024-01-16T12:33:28;1.40;;;0.73;;
12818;SDS011;6474;53.474;9.894;2024-01-16T12:36:02;0.67;;;0.67;;
12818;SDS011;6474;53.474;9.894;2024-01-16T12:38:32;0.50;;;0.50;;
12818;SDS011;6474;53.474;9.894;2024-01-16T12:41:01;0.40;;;0.40;;
12818;SDS011;6474;53.474;9.894;2024-01-16T12:43:35;0.60;;;0.60;;
12818;SDS011;6474;53.474;9.894;2024-01-16T12:46:04;0.33;;;0.33;;
12818;SDS011;6474;53.474;9.894;2024-01-16T12:48:33;1.70;;;0.53;;
12818;SDS011;6474;53.474;9.894;2024-01-16T12:51:02;0.73;;;0.73;;
12818;SDS011;6474;53.474;9.894;2024-01-16T12:53:33;0.47;;;0.47;;
12818;SDS011;6474;53.474;9.894;2024-01-16T12:56:03;2.57;;;0.83;;
12818;SDS011;6474;53.474;9.894;2024-01-16T12:58:34;1.13;;;0.93;;
12818;SDS011;6474;53.474;9.894;2024-01-16T13:01:21;0.60;;;0.60;;
12818;SDS011;6474;53.474;9.894;2024-01-16T13:04:04;0.67;;;0.67;;
12818;SDS011;6474;53.474;9.894;2024-01-16T13:06:34;0.70;;;0.70;;
12818;SDS011;6474;53.474;9.894;2024-01-16T13:09:06;0.23;;;0.23;;
12818;SDS011;6474;53.474;9.894;2024-01-16T13:11:44;0.97;;;0.77;;
12818;SDS011;6474;53.474;9.894;2024-01-16T13:14:17;1.07;;;0.87;;
12818;SDS011;6474;53.474;9.894;2024-01-16T13:16:47;0.60;;;0.60;;
12818;SDS011;6474;53.474;9.894;2024-01-16T13:19:16;0.33;;;0.33;;
12818;SDS011;6474;53.474;9.894;2024-01-16T13:21:46;0.57;;;0.40;;
12818;SDS011;6474;53.474;9.894;2024-01-16T13:24:14;0.40;;;0.40;;
12818;SDS011;6474;53.474;9.894;2024-01-16T13:26:43;0.90;;;0.90;;
12818;SDS011;6474;53.474;9.894;2024-01-16T13:29:11;1.23;;;1.00;;
12818;SDS011;6474;53.474;9.894;2024-01-16T13:31:39;0.40;;;0.40;;
12818;SDS011;6474;53.474;9.894;2024-01-16T13:34:07;1.10;;;1.10;;
12818;SDS011;6474;53.474;9.894;2024-01-16T13:36:35;1.37;;;1.03;;
12818;SDS011;6474;53.474;9.894;2024-01-16T13:39:24;3.73;;;1.07;;
12818;SDS011;6474;53.474;9.894;2024-01-16T13:41:52;1.77;;;1.67;;
12818;SDS011;6474;53.474;9.894;2024-01-16T13:44:20;0.57;;;0.57;;
12818;SDS011;6474;53.474;9.894;2024-01-16T13:46:48;1.03;;;1.03;;
12818;SDS011;6474;53.474;9.894;2024-01-16T13:49:31;0.87;;;0.87;;
12818;SDS011;6474;53.474;9.894;2024-01-16T13:52:00;1.60;;;1.20;;
12818;SDS011;6474;53.474;9.894;2024-01-16T13:54:31;1.37;;;1.20;;
12818;SDS011;6474;53.474;9.894;2024-01-16T13:56:58;0.93;;;0.93;;
12818;SDS011;6474;53.474;9.894;2024-01-16T13:59:33;1.60;;;1.53;;
12818;SDS011;6474;53.474;9.894;2024-01-16T14:02:02;1.40;;;1.40;;
12818;SDS011;6474;53.474;9.894;2024-01-16T14:04:30;0.93;;;0.77;;
12818;SDS011;6474;53.474;9.894;2024-01-16T14:06:59;1.17;;;1.17;;
12818;SDS011;6474;53.474;9.894;2024-01-16T14:09:40;0.70;;;0.70;;
12818;SDS011;6474;53.474;9.894;2024-01-16T14:12:11;0.77;;;0.77;;
12818;SDS011;6474;53.474;9.894;2024-01-16T14:14:40;0.83;;;0.83;;
12818;SDS011;6474;53.474;9.894;2024-01-16T14:17:09;1.33;;;1.10;;
12818;SDS011;6474;53.474;9.894;2024-01-16T14:19:37;0.90;;;0.90;;
12818;SDS011;6474;53.474;9.894;2024-01-16T14:22:05;0.90;;;0.90;;
12818;SDS011;6474;53.474;9.894;2024-01-16T14:24:33;0.77;;;0.70;;
12818;SDS011;6474;53.474;9.894;2024-01-16T14:27:03;1.43;;;1.37;;
12818;SDS011;6474;53.474;9.894;2024-01-16T14:29:31;1.43;;;1.20;;
12818;SDS011;6474;53.474;9.894;2024-01-16T14:32:00;0.77;;;0.70;;
12818;SDS011;6474;53.474;9.894;2024-01-16T14:34:28;5.03;;;1.00;;
12818;SDS011;6474;53.474;9.894;2024-01-16T14:36:56;0.63;;;0.63;;
12818;SDS011;6474;53.474;9.894;2024-01-16T14:39:24;0.93;;;0.73;;
12818;SDS011;6474;53.474;9.894;2024-01-16T14:41:53;0.53;;;0.53;;
12818;SDS011;6474;53.474;9.894;2024-01-16T14:44:22;3.60;;;0.83;;
12818;SDS011;6474;53.474;9.894;2024-01-16T14:46:50;0.60;;;0.60;;
12818;SDS011;6474;53.474;9.894;2024-01-16T14:49:20;0.77;;;0.70;;
12818;SDS011;6474;53.474;9.894;2024-01-16T14:51:48;0.60;;;0.60;;
12818;SDS011;6474;53.474;9.894;2024-01-16T14:54:17;3.57;;;0.90;;
12818;SDS011;6474;53.474;9.894;2024-01-16T14:56:45;2.30;;;1.33;;
12818;SDS011;6474;53.474;9.894;2024-01-16T14:59:14;1.03;;;1.03;;
12818;SDS011;6474;53.474;9.894;2024-01-16T15:01:44;0.97;;;0.97;;
12818;SDS011;6474;53.474;9.894;2024-01-16T15:04:11;0.80;;;0.80;;
12818;SDS011;6474;53.474;9.894;2024-01-16T15:06:39;0.70;;;0.70;;
12818;SDS011;6474;53.474;9.894;2024-01-16T15:09:07;3.67;;;0.63;;
12818;SDS011;6474;53.474;9.894;2024-01-16T15:11:38;3.10;;;1.73;;
12818;SDS011;6474;53.474;9.894;2024-01-16T15:14:06;1.00;;;0.90;;
12818;SDS011;6474;53.474;9.894;2024-01-16T15:16:34;0.90;;;0.90;;
12818;SDS011;6474;53.474;9.894;2024-01-16T15:19:03;1.30;;;1.27;;
12818;SDS011;6474;53.474;9.894;2024-01-16T15:21:31;3.13;;;1.23;;
12818;SDS011;6474;53.474;9.894;2024-01-16T15:23:59;0.57;;;0.57;;